createdAt,value
2022-12-24T00:29:14.757Z,0
2022-12-24T00:29:55.075Z,0
2022-12-24T00:30:35.630Z,0
2022-12-24T00:31:16.195Z,0
2022-12-24T00:31:56.548Z,0
2022-12-24T00:32:37.022Z,0
2022-12-24T00:35:05.188Z,0
2022-12-24T00:35:45.784Z,0
2022-12-24T00:36:26.252Z,0
2022-12-24T00:37:06.813Z,0
2022-12-24T00:37:47.243Z,0
2022-12-24T00:38:27.753Z,0
2022-12-24T00:39:08.281Z,0
2022-12-24T00:39:48.770Z,0
2022-12-24T00:40:29.283Z,0
2022-12-24T00:41:09.759Z,0
2022-12-24T00:41:50.336Z,0
2022-12-24T00:47:15.007Z,0
2022-12-24T00:47:55.520Z,0
2022-12-24T00:48:35.981Z,0
2022-12-24T00:49:16.525Z,0
2022-12-24T00:49:57.053Z,0
2022-12-24T00:50:37.566Z,0
2022-12-24T00:51:18.164Z,0
2022-12-24T00:51:58.602Z,0
2022-12-24T00:52:39.086Z,0
2022-12-24T00:53:19.595Z,0
2022-12-24T00:54:00.115Z,0
2022-12-24T01:00:04.856Z,0
2022-12-24T01:00:45.280Z,0
2022-12-24T01:01:25.934Z,0
2022-12-24T01:02:06.439Z,0
2022-12-24T01:02:47.075Z,0
2022-12-24T01:03:27.401Z,0
2022-12-24T01:04:07.806Z,0
2022-12-24T01:04:48.269Z,0
2022-12-24T01:05:28.817Z,0
2022-12-24T01:06:09.281Z,0
2022-12-24T01:06:49.825Z,0
2022-12-24T01:14:15.310Z,0
2022-12-24T01:14:55.819Z,0
2022-12-24T01:17:08.761Z,0
2022-12-24T01:17:49.188Z,0
2022-12-24T01:18:29.682Z,0
2022-12-24T01:19:10.176Z,0
2022-12-24T01:19:50.713Z,0
2022-12-24T01:20:31.128Z,0
2022-12-24T01:21:11.616Z,0
2022-12-24T01:21:52.111Z,0
2022-12-24T01:22:32.653Z,0
2022-12-24T01:23:13.138Z,0
2022-12-24T01:30:38.583Z,0
2022-12-24T01:31:19.218Z,0
2022-12-24T01:31:59.598Z,0
2022-12-24T01:32:40.096Z,0
2022-12-24T01:33:20.546Z,0
2022-12-24T01:34:01.038Z,0
2022-12-24T01:34:41.499Z,0
2022-12-24T01:36:02.509Z,0
2022-12-24T01:36:43.030Z,0
2022-12-24T01:37:23.501Z,0
2022-12-24T01:44:08.483Z,0
2022-12-24T01:44:48.941Z,0
2022-12-24T01:45:29.451Z,0
2022-12-24T01:46:09.974Z,0
2022-12-24T01:46:50.518Z,0
2022-12-24T01:47:30.994Z,0
2022-12-24T01:48:11.452Z,0
2022-12-24T01:48:51.943Z,0
2022-12-24T01:49:32.444Z,0
2022-12-24T01:50:12.972Z,0
2022-12-24T01:50:53.378Z,0
2022-12-24T01:57:38.284Z,0
2022-12-24T01:58:18.772Z,0
2022-12-24T01:58:59.279Z,0
2022-12-24T01:59:39.771Z,0
2022-12-24T02:00:20.271Z,0
2022-12-24T02:01:00.745Z,0
2022-12-24T02:01:41.311Z,0
2022-12-24T02:02:21.882Z,0
2022-12-24T02:03:02.417Z,0
2022-12-24T02:03:42.769Z,0
2022-12-24T02:04:23.235Z,0
2022-12-24T02:11:09.074Z,0
2022-12-24T02:11:49.596Z,0
2022-12-24T02:12:30.100Z,0
2022-12-24T02:13:10.603Z,0
2022-12-24T02:13:51.094Z,0
2022-12-24T02:14:31.568Z,0
2022-12-24T02:15:12.067Z,0
2022-12-24T02:15:52.571Z,0
2022-12-24T02:16:33.060Z,0
2022-12-24T02:17:13.507Z,0
2022-12-24T02:23:58.389Z,0
2022-12-24T02:24:38.867Z,0
2022-12-24T02:25:19.381Z,0
2022-12-24T02:25:59.858Z,0
2022-12-24T02:26:40.371Z,0
2022-12-24T02:27:20.845Z,0
2022-12-24T02:28:01.354Z,0
2022-12-24T02:28:41.857Z,0
2022-12-24T02:29:22.352Z,0
2022-12-24T02:30:43.334Z,0
2022-12-24T02:37:28.240Z,0
2022-12-24T02:38:08.701Z,0
2022-12-24T02:38:49.169Z,0
2022-12-24T02:39:29.687Z,0
2022-12-24T02:40:15.928Z,0
2022-12-24T02:40:50.675Z,0
2022-12-24T02:41:31.162Z,0
2022-12-24T02:42:11.663Z,0
2022-12-24T02:42:52.126Z,0
2022-12-24T02:43:32.664Z,0
2022-12-24T02:44:13.153Z,0
2022-12-24T02:51:38.695Z,0
2022-12-24T02:52:19.143Z,0
2022-12-24T02:52:59.670Z,0
2022-12-24T02:53:40.128Z,0
2022-12-24T02:54:20.619Z,0
2022-12-24T02:56:38.522Z,0
2022-12-24T02:57:18.981Z,0
2022-12-24T02:57:59.499Z,0
2022-12-24T02:58:39.972Z,0
2022-12-24T02:59:20.495Z,0
2022-12-24T03:00:00.997Z,0
2022-12-24T03:00:41.534Z,0
2022-12-24T03:01:22.772Z,0
2022-12-24T03:02:03.266Z,0
2022-12-24T03:02:43.703Z,0
2022-12-24T03:09:28.518Z,0
2022-12-24T03:10:08.997Z,0
2022-12-24T03:10:49.476Z,0
2022-12-24T03:11:29.957Z,0
2022-12-24T03:12:10.435Z,0
2022-12-24T03:12:50.900Z,0
2022-12-24T03:13:31.379Z,0
2022-12-24T03:14:11.851Z,0
2022-12-24T03:14:52.333Z,0
2022-12-24T03:15:32.786Z,0
2022-12-24T03:16:13.312Z,0
2022-12-24T03:23:38.719Z,0
2022-12-24T03:24:19.232Z,0
2022-12-24T03:24:59.674Z,0
2022-12-24T03:25:40.146Z,0
2022-12-24T03:26:20.737Z,0
2022-12-24T03:27:01.197Z,0
2022-12-24T03:27:41.673Z,0
2022-12-24T03:28:22.160Z,0
2022-12-24T03:29:03.210Z,0
2022-12-24T03:32:17.086Z,0
2022-12-24T03:32:57.677Z,0
2022-12-24T03:33:38.121Z,0
2022-12-24T03:34:18.629Z,0
2022-12-24T03:38:21.603Z,0
2022-12-24T03:39:02.077Z,0
2022-12-24T03:39:42.623Z,0
2022-12-24T03:40:23.110Z,0
2022-12-24T03:41:03.640Z,0
2022-12-24T03:41:44.152Z,0
2022-12-24T03:42:24.638Z,0
2022-12-24T03:43:05.148Z,0
2022-12-24T03:43:45.661Z,0
2022-12-24T03:44:26.082Z,0
2022-12-24T03:45:06.591Z,0
2022-12-24T03:51:51.574Z,0
2022-12-24T03:52:32.073Z,0
2022-12-24T03:53:12.598Z,0
2022-12-24T03:53:53.067Z,0
2022-12-24T03:54:33.607Z,0
2022-12-24T03:55:14.077Z,0
2022-12-24T03:55:54.623Z,0
2022-12-24T03:56:35.051Z,0
2022-12-24T03:57:15.540Z,0
2022-12-24T03:57:56.043Z,0
2022-12-24T03:58:36.528Z,0
2022-12-24T04:05:21.518Z,0
2022-12-24T04:06:02.029Z,0
2022-12-24T04:06:42.602Z,0
2022-12-24T04:07:23.091Z,0
2022-12-24T04:08:03.568Z,0
2022-12-24T04:08:44.066Z,0
2022-12-24T04:09:24.583Z,0
2022-12-24T04:10:05.105Z,0
2022-12-24T04:10:45.580Z,0
2022-12-24T04:11:26.101Z,0
2022-12-24T04:12:06.588Z,0
2022-12-24T04:18:51.619Z,0
2022-12-24T04:19:32.117Z,0
2022-12-24T04:20:12.609Z,0
2022-12-24T04:20:53.160Z,0
2022-12-24T04:21:33.590Z,0
2022-12-24T04:22:14.091Z,0
2022-12-24T04:22:54.600Z,0
2022-12-24T04:23:35.080Z,0
2022-12-24T04:24:15.597Z,0
2022-12-24T04:24:56.103Z,0
2022-12-24T04:25:36.579Z,0
2022-12-24T04:32:21.601Z,0
2022-12-24T04:33:02.091Z,0
2022-12-24T04:33:42.601Z,0
2022-12-24T04:34:23.200Z,0
2022-12-24T04:35:03.596Z,0
2022-12-24T04:35:44.134Z,0
2022-12-24T04:36:24.623Z,0
2022-12-24T04:37:05.137Z,0
2022-12-24T04:37:45.577Z,0
2022-12-24T04:38:26.067Z,0
2022-12-24T04:45:51.785Z,0
2022-12-24T04:47:12.690Z,0
2022-12-24T04:47:53.204Z,0
2022-12-24T04:48:33.694Z,0
2022-12-24T04:49:14.197Z,0
2022-12-24T04:49:54.683Z,0
2022-12-24T04:50:35.206Z,0
2022-12-24T04:51:15.705Z,0
2022-12-24T04:51:56.221Z,0
2022-12-24T04:52:36.706Z,0
2022-12-24T04:59:21.763Z,0
2022-12-24T05:00:02.295Z,0
2022-12-24T05:00:42.780Z,0
2022-12-24T05:01:23.382Z,0
2022-12-24T05:02:03.992Z,0
2022-12-24T05:02:44.483Z,0
2022-12-24T05:03:24.882Z,0
2022-12-24T05:04:45.785Z,0
2022-12-24T05:05:26.320Z,0
2022-12-24T05:12:51.770Z,0
2022-12-24T05:13:40.596Z,0
2022-12-24T05:14:12.767Z,0
2022-12-24T05:14:53.243Z,0
2022-12-24T05:15:33.756Z,0
2022-12-24T05:16:14.367Z,0
2022-12-24T05:16:54.793Z,0
2022-12-24T05:17:35.314Z,0
2022-12-24T05:18:15.809Z,0
2022-12-24T05:18:56.337Z,0
2022-12-24T05:26:21.761Z,0
2022-12-24T05:27:02.278Z,0
2022-12-24T05:27:47.499Z,0
2022-12-24T05:28:23.247Z,0
2022-12-24T05:29:03.745Z,0
2022-12-24T05:29:44.331Z,0
2022-12-24T05:30:24.790Z,0
2022-12-24T05:31:05.246Z,0
2022-12-24T05:31:45.718Z,0
2022-12-24T05:32:26.249Z,0
2022-12-24T05:33:06.745Z,0
2022-12-24T05:39:51.805Z,0
2022-12-24T05:40:32.379Z,0
2022-12-24T05:41:12.867Z,0
2022-12-24T05:41:53.308Z,0
2022-12-24T05:42:33.859Z,0
2022-12-24T05:43:14.342Z,0
2022-12-24T05:43:54.832Z,0
2022-12-24T05:44:35.352Z,0
2022-12-24T05:45:15.833Z,0
2022-12-24T05:45:56.375Z,0
2022-12-24T05:53:21.839Z,0
2022-12-24T05:54:02.343Z,0
2022-12-24T06:32:13.537Z,0
2022-12-24T06:32:54.011Z,0
2022-12-24T06:33:34.469Z,0
2022-12-24T06:34:14.949Z,0
2022-12-24T06:34:55.477Z,0
2022-12-24T06:35:36.001Z,0
2022-12-24T06:36:17.620Z,0
2022-12-24T06:36:56.997Z,0
2022-12-24T06:37:37.520Z,0
2022-12-24T06:38:58.479Z,0
2022-12-24T06:45:43.407Z,0
2022-12-24T06:46:24.049Z,0
2022-12-24T06:47:04.462Z,0
2022-12-24T06:47:44.989Z,0
2022-12-24T06:48:25.409Z,0
2022-12-24T06:49:05.945Z,0
2022-12-24T06:49:46.506Z,0
2022-12-24T06:50:26.942Z,0
2022-12-24T06:51:07.434Z,0
2022-12-24T06:51:47.980Z,0
2022-12-24T06:52:28.456Z,0
2022-12-24T06:59:13.510Z,0
2022-12-24T06:59:53.993Z,0
2022-12-24T07:00:34.531Z,0
2022-12-24T07:01:15.175Z,0
2022-12-24T07:01:55.602Z,0
2022-12-24T07:02:36.175Z,0
2022-12-24T07:03:16.634Z,0
2022-12-24T07:03:57.123Z,0
2022-12-24T07:04:37.633Z,0
2022-12-24T07:05:18.150Z,0
2022-12-24T07:12:43.618Z,4
2022-12-24T07:13:24.083Z,4
2022-12-24T07:14:04.611Z,4
2022-12-24T07:14:45.128Z,4
2022-12-24T07:15:25.631Z,8
2022-12-24T07:16:06.206Z,4
2022-12-24T07:16:46.734Z,4
2022-12-24T07:17:27.257Z,4
2022-12-24T07:18:07.588Z,8
2022-12-24T07:18:48.136Z,8
2022-12-24T07:19:28.581Z,8
2022-12-24T07:25:33.280Z,12
2022-12-24T07:26:13.777Z,16
2022-12-24T07:26:54.260Z,16
2022-12-24T07:27:34.779Z,12
2022-12-24T07:28:15.328Z,12
2022-12-24T07:28:55.804Z,12
2022-12-24T07:29:36.308Z,12
2022-12-24T07:30:16.837Z,16
2022-12-24T07:30:57.372Z,16
2022-12-24T07:31:37.904Z,16
2022-12-24T07:32:18.388Z,20
2022-12-24T07:39:03.366Z,24
2022-12-24T07:39:43.863Z,24
2022-12-24T07:40:24.392Z,28
2022-12-24T07:41:45.382Z,36
2022-12-24T07:42:25.854Z,40
2022-12-24T07:43:06.417Z,40
2022-12-24T07:43:46.919Z,48
2022-12-24T07:44:27.398Z,52
2022-12-24T07:45:07.918Z,56
2022-12-24T07:45:48.412Z,60
2022-12-24T07:52:33.363Z,60
2022-12-24T07:53:13.875Z,60
2022-12-24T07:53:54.415Z,56
2022-12-24T07:54:34.863Z,64
2022-12-24T07:55:15.324Z,68
2022-12-24T07:55:55.855Z,72
2022-12-24T07:56:36.398Z,76
2022-12-24T07:57:16.854Z,80
2022-12-24T07:57:57.359Z,92
2022-12-24T07:58:37.852Z,104
2022-12-24T07:59:18.326Z,124
2022-12-24T08:06:03.377Z,216
2022-12-24T08:06:43.852Z,228
2022-12-24T08:07:24.389Z,232
2022-12-24T08:08:04.887Z,248
2022-12-24T08:08:45.423Z,240
2022-12-24T08:09:25.910Z,224
2022-12-24T08:10:06.397Z,200
2022-12-24T08:10:46.891Z,188
2022-12-24T08:11:27.417Z,188
2022-12-24T08:12:07.908Z,188
2022-12-24T08:12:48.392Z,204
2022-12-24T08:19:33.487Z,268
2022-12-24T08:20:14.009Z,272
2022-12-24T08:20:54.466Z,280
2022-12-24T08:21:34.973Z,280
2022-12-24T08:22:15.479Z,288
2022-12-24T08:22:56.007Z,320
2022-12-24T08:23:36.517Z,352
2022-12-24T08:24:17.086Z,364
2022-12-24T08:24:57.556Z,360
2022-12-24T08:25:38.076Z,376
2022-12-24T08:26:18.534Z,428
2022-12-24T08:33:03.521Z,180
2022-12-24T08:33:44.077Z,196
2022-12-24T08:34:24.574Z,208
2022-12-24T08:35:05.089Z,212
2022-12-24T08:35:45.577Z,212
2022-12-24T08:36:26.127Z,212
2022-12-24T08:37:06.593Z,212
2022-12-24T08:37:47.081Z,220
2022-12-24T08:38:27.586Z,232
2022-12-24T08:39:08.084Z,252
2022-12-24T08:39:48.586Z,260
2022-12-24T08:46:33.784Z,320
2022-12-24T08:47:14.191Z,328
2022-12-24T08:47:54.656Z,320
2022-12-24T08:48:35.294Z,316
2022-12-24T08:49:15.757Z,304
2022-12-24T08:49:56.260Z,304
2022-12-24T08:50:36.739Z,308
2022-12-24T08:51:17.239Z,312
2022-12-24T08:51:57.768Z,288
2022-12-24T08:52:38.302Z,308
2022-12-24T09:00:03.732Z,368
2022-12-24T09:00:44.293Z,372
2022-12-24T09:01:24.947Z,368
2022-12-24T09:02:05.508Z,352
2022-12-24T09:02:45.967Z,336
2022-12-24T09:03:27.965Z,316
2022-12-24T09:04:06.781Z,308
2022-12-24T09:04:47.283Z,304
2022-12-24T09:05:27.779Z,304
2022-12-24T09:06:08.287Z,312
2022-12-24T09:12:53.398Z,340
2022-12-24T09:13:33.905Z,340
2022-12-24T09:14:14.440Z,356
2022-12-24T09:14:58.122Z,392
2022-12-24T09:15:35.465Z,432
2022-12-24T09:16:15.958Z,468
2022-12-24T09:17:36.902Z,464
2022-12-24T09:18:17.418Z,472
2022-12-24T09:18:57.931Z,472
2022-12-24T09:26:23.447Z,400
2022-12-24T09:28:36.175Z,412
2022-12-24T09:29:16.702Z,424
2022-12-24T09:29:57.240Z,428
2022-12-24T09:30:37.676Z,428
2022-12-24T09:31:18.329Z,436
2022-12-24T09:31:58.788Z,448
2022-12-24T09:32:39.233Z,448
2022-12-24T09:33:19.625Z,452
2022-12-24T09:34:00.140Z,444
2022-12-24T09:34:40.589Z,436
2022-12-24T09:35:21.074Z,424
2022-12-24T09:42:05.955Z,316
2022-12-24T09:42:46.456Z,328
2022-12-24T09:43:27.451Z,348
2022-12-24T09:44:07.923Z,376
2022-12-24T09:44:48.445Z,384
2022-12-24T09:45:28.954Z,380
2022-12-24T09:46:09.427Z,380
2022-12-24T09:46:49.950Z,380
2022-12-24T09:47:30.421Z,368
2022-12-24T09:48:10.885Z,364
2022-12-24T09:55:36.395Z,384
2022-12-24T09:56:16.864Z,400
2022-12-24T09:56:57.339Z,412
2022-12-24T09:57:37.845Z,428
2022-12-24T09:58:18.318Z,432
2022-12-24T09:58:58.787Z,432
2022-12-24T09:59:39.279Z,424
2022-12-24T10:00:19.748Z,404
2022-12-24T10:01:00.295Z,392
2022-12-24T10:01:40.860Z,364
2022-12-24T10:02:21.389Z,336
2022-12-24T10:09:06.170Z,296
2022-12-24T10:09:46.648Z,300
2022-12-24T10:10:27.091Z,312
2022-12-24T10:11:07.566Z,324
2022-12-24T10:11:48.083Z,340
2022-12-24T10:12:28.569Z,360
2022-12-24T10:13:49.646Z,352
2022-12-24T10:14:30.182Z,380
2022-12-24T10:15:10.636Z,404
2022-12-24T10:22:35.991Z,524
2022-12-24T10:23:16.456Z,532
2022-12-24T10:23:56.950Z,552
2022-12-24T10:24:37.466Z,580
2022-12-24T10:25:18.548Z,596
2022-12-24T10:25:59.076Z,604
2022-12-24T10:26:39.531Z,604
2022-12-24T10:27:19.999Z,612
2022-12-24T10:28:00.486Z,600
2022-12-24T10:35:25.929Z,708
2022-12-24T10:36:11.807Z,716
2022-12-24T10:36:46.933Z,740
2022-12-24T10:37:27.453Z,756
2022-12-24T10:38:07.955Z,776
2022-12-24T10:39:28.943Z,820
2022-12-24T10:40:09.502Z,812
2022-12-24T10:40:49.962Z,788
2022-12-24T10:41:30.439Z,772
2022-12-24T10:42:10.922Z,768
2022-12-24T10:49:36.382Z,408
2022-12-24T10:50:16.863Z,396
2022-12-24T10:50:57.333Z,420
2022-12-24T10:51:37.808Z,448
2022-12-24T10:52:18.313Z,440
2022-12-24T10:52:58.833Z,452
2022-12-24T10:53:39.325Z,476
2022-12-24T10:54:26.417Z,472
2022-12-24T10:55:00.320Z,480
2022-12-24T10:55:40.846Z,508
2022-12-24T11:03:06.331Z,392
2022-12-24T11:03:46.765Z,428
2022-12-24T11:04:27.255Z,448
2022-12-24T11:05:07.788Z,472
2022-12-24T11:05:48.265Z,500
2022-12-24T11:06:28.798Z,540
2022-12-24T11:07:09.286Z,624
2022-12-24T11:07:49.734Z,692
2022-12-24T11:08:30.212Z,672
2022-12-24T11:09:10.727Z,688
2022-12-24T11:15:56.439Z,712
2022-12-24T11:16:36.914Z,624
2022-12-24T11:17:17.400Z,604
2022-12-24T11:17:57.935Z,608
2022-12-24T11:18:38.425Z,584
2022-12-24T11:19:18.986Z,576
2022-12-24T11:19:59.435Z,568
2022-12-24T11:20:39.999Z,584
2022-12-24T11:21:20.471Z,588
2022-12-24T11:22:00.983Z,600
2022-12-24T11:29:26.388Z,428
2022-12-24T11:30:11.681Z,380
2022-12-24T11:30:47.371Z,368
2022-12-24T11:31:27.867Z,380
2022-12-24T11:32:09.083Z,392
2022-12-24T11:33:29.463Z,392
2022-12-24T11:34:09.939Z,388
2022-12-24T11:34:50.403Z,408
2022-12-24T11:35:30.868Z,408
2022-12-24T11:42:15.955Z,564
2022-12-24T11:42:56.365Z,512
2022-12-24T11:43:36.873Z,428
2022-12-24T11:44:17.345Z,340
2022-12-24T11:44:57.856Z,428
2022-12-24T11:45:38.331Z,372
2022-12-24T11:46:18.868Z,416
2022-12-24T11:46:59.403Z,512
2022-12-24T11:47:39.862Z,468
2022-12-24T11:48:20.305Z,476
2022-12-24T11:49:05.944Z,484
2022-12-24T11:49:41.272Z,508
2022-12-24T12:32:44.888Z,480
2022-12-24T12:33:25.344Z,548
2022-12-24T12:34:06.631Z,568
2022-12-24T12:34:47.131Z,632
2022-12-24T12:35:27.616Z,544
2022-12-24T12:36:08.100Z,528
2022-12-24T12:36:48.572Z,524
2022-12-24T12:37:29.033Z,532
2022-12-24T12:38:09.554Z,540
2022-12-24T12:44:14.674Z,680
2022-12-24T12:44:55.183Z,752
2022-12-24T12:45:35.664Z,768
2022-12-24T12:46:16.177Z,740
2022-12-24T12:46:56.713Z,752
2022-12-24T12:47:37.173Z,812
2022-12-24T12:48:17.659Z,820
2022-12-24T12:49:02.403Z,832
2022-12-24T12:49:38.632Z,804
2022-12-24T12:50:19.125Z,808
2022-12-24T12:57:44.581Z,784
2022-12-24T12:58:25.063Z,744
2022-12-24T12:59:05.551Z,740
2022-12-24T12:59:46.039Z,704
2022-12-24T13:03:15.300Z,680
2022-12-24T13:03:55.614Z,616
2022-12-24T13:04:36.118Z,648
2022-12-24T13:05:16.601Z,652
2022-12-24T13:05:57.091Z,712
2022-12-24T13:09:11.189Z,920
2022-12-24T13:09:51.509Z,832
2022-12-24T13:10:31.977Z,752
2022-12-24T13:11:12.520Z,712
2022-12-24T13:11:52.960Z,680
2022-12-24T13:12:33.454Z,640
2022-12-24T13:13:18.552Z,600
2022-12-24T13:13:54.420Z,588
2022-12-24T13:14:34.873Z,596
2022-12-24T13:15:15.383Z,604
2022-12-24T13:15:55.886Z,556
2022-12-24T13:22:40.908Z,488
2022-12-24T13:23:21.404Z,492
2022-12-24T13:24:01.898Z,464
2022-12-24T13:24:46.464Z,428
2022-12-24T13:25:22.966Z,400
2022-12-24T13:26:03.422Z,400
2022-12-24T13:26:43.871Z,396
2022-12-24T13:27:24.379Z,384
2022-12-24T13:28:04.869Z,372
2022-12-24T13:28:45.366Z,392
2022-12-24T13:29:25.864Z,396
2022-12-24T13:36:10.835Z,480
2022-12-24T13:36:51.351Z,480
2022-12-24T13:37:31.873Z,464
2022-12-24T13:38:12.362Z,456
2022-12-24T13:38:52.845Z,476
2022-12-24T13:39:33.429Z,472
2022-12-24T13:40:13.902Z,440
2022-12-24T13:40:54.400Z,428
2022-12-24T13:41:39.181Z,440
2022-12-24T13:42:15.403Z,436
2022-12-24T13:49:40.836Z,520
2022-12-24T13:50:21.375Z,568
2022-12-24T13:51:01.807Z,580
2022-12-24T13:51:42.290Z,596
2022-12-24T13:52:22.760Z,620
2022-12-24T13:53:03.260Z,624
2022-12-24T13:53:43.783Z,632
2022-12-24T13:54:24.306Z,608
2022-12-24T13:55:04.766Z,564
2022-12-24T13:55:45.273Z,548
2022-12-24T14:03:10.999Z,472
2022-12-24T14:03:51.435Z,492
2022-12-24T14:04:31.961Z,488
2022-12-24T14:05:15.637Z,468
2022-12-24T14:05:52.972Z,444
2022-12-24T14:06:33.431Z,416
2022-12-24T14:07:13.904Z,404
2022-12-24T14:07:54.390Z,400
2022-12-24T14:08:34.923Z,392
2022-12-24T14:09:55.896Z,392
2022-12-24T14:16:40.919Z,312
2022-12-24T14:17:21.361Z,304
2022-12-24T14:18:01.881Z,304
2022-12-24T14:18:43.224Z,280
2022-12-24T14:19:22.902Z,276
2022-12-24T14:20:03.425Z,260
2022-12-24T14:20:43.887Z,244
2022-12-24T14:21:24.382Z,228
2022-12-24T14:22:04.840Z,232
2022-12-24T14:22:45.326Z,236
2022-12-24T14:23:25.851Z,240
2022-12-24T14:30:10.774Z,184
2022-12-24T14:30:51.247Z,192
2022-12-24T14:31:31.795Z,200
2022-12-24T14:32:12.280Z,212
2022-12-24T14:32:52.709Z,208
2022-12-24T14:33:33.186Z,208
2022-12-24T14:34:13.655Z,204
2022-12-24T14:34:54.096Z,188
2022-12-24T14:35:34.579Z,176
2022-12-24T14:36:15.066Z,156
2022-12-24T14:36:55.621Z,140
2022-12-24T14:44:21.215Z,136
2022-12-24T14:45:01.685Z,132
2022-12-24T14:45:42.207Z,128
2022-12-24T14:46:23.252Z,120
2022-12-24T14:47:03.172Z,116
2022-12-24T14:47:43.624Z,104
2022-12-24T14:48:24.111Z,100
2022-12-24T14:49:04.645Z,88
2022-12-24T14:49:45.107Z,80
2022-12-24T14:50:25.589Z,84
2022-12-24T14:57:06.809Z,76
2022-12-24T14:57:47.497Z,80
2022-12-24T14:58:28.222Z,76
2022-12-24T14:59:08.413Z,72
2022-12-24T14:59:48.917Z,68
2022-12-24T15:00:31.228Z,64
2022-12-24T15:01:10.080Z,60
2022-12-24T15:01:50.624Z,60
2022-12-24T15:02:31.380Z,60
2022-12-24T15:03:11.853Z,60
2022-12-24T15:09:16.452Z,36
2022-12-24T15:09:56.943Z,36
2022-12-24T15:10:37.456Z,36
2022-12-24T15:11:18.044Z,40
2022-12-24T15:11:58.531Z,36
2022-12-24T15:12:39.024Z,40
2022-12-24T15:13:19.525Z,44
2022-12-24T15:14:00.023Z,48
2022-12-24T15:14:40.531Z,44
2022-12-24T15:15:21.100Z,48
2022-12-24T15:16:01.560Z,48
2022-12-24T15:22:46.667Z,36
2022-12-24T15:23:27.212Z,32
2022-12-24T15:24:07.670Z,28
2022-12-24T15:24:48.173Z,28
2022-12-24T15:25:28.786Z,28
2022-12-24T15:26:09.196Z,28
2022-12-24T15:26:49.768Z,24
2022-12-24T15:28:10.760Z,24
2022-12-24T15:28:53.013Z,20
2022-12-24T15:29:31.726Z,20
2022-12-24T15:36:16.850Z,12
2022-12-24T15:36:57.437Z,12
2022-12-24T15:37:37.896Z,12
2022-12-24T15:38:18.823Z,8
2022-12-24T15:38:58.900Z,12
2022-12-24T15:39:39.392Z,12
2022-12-24T15:40:19.909Z,8
2022-12-24T15:41:00.394Z,8
2022-12-24T15:41:40.890Z,8
2022-12-24T15:42:21.369Z,8
2022-12-24T15:49:06.414Z,0
2022-12-24T15:49:46.907Z,4
2022-12-24T15:50:27.451Z,4
2022-12-24T15:51:07.961Z,4
2022-12-24T15:51:48.459Z,4
2022-12-24T15:52:28.964Z,0
2022-12-24T15:53:19.090Z,0
2022-12-24T15:53:49.951Z,0
2022-12-24T15:54:30.472Z,0
2022-12-24T15:55:10.902Z,0
2022-12-24T15:55:51.407Z,0
2022-12-24T16:02:36.628Z,0
2022-12-24T16:03:17.015Z,0
2022-12-24T16:03:57.453Z,0
2022-12-24T16:04:37.919Z,0
2022-12-24T16:05:18.396Z,0
2022-12-24T16:05:58.901Z,0
2022-12-24T16:06:39.408Z,0
2022-12-24T16:07:19.899Z,0
2022-12-24T16:08:00.393Z,0
2022-12-24T16:09:21.367Z,0
2022-12-24T16:16:46.863Z,0
2022-12-24T16:17:27.361Z,0
2022-12-24T16:18:07.790Z,0
2022-12-24T16:18:48.345Z,0
2022-12-24T16:19:30.818Z,0
2022-12-24T16:20:09.326Z,0
2022-12-24T16:20:49.841Z,0
2022-12-24T16:21:30.330Z,0
2022-12-24T16:22:10.810Z,0
2022-12-24T16:22:51.344Z,0
2022-12-24T16:23:31.778Z,0
2022-12-24T16:28:56.734Z,0
2022-12-24T16:29:37.232Z,0
2022-12-24T16:30:17.720Z,0
2022-12-24T16:30:58.278Z,0
2022-12-24T16:31:38.825Z,0
2022-12-24T16:32:19.210Z,0
2022-12-24T16:32:59.724Z,0
2022-12-24T16:33:40.225Z,0
2022-12-24T16:34:20.730Z,0
2022-12-24T16:35:41.712Z,0
2022-12-24T16:42:26.783Z,0
2022-12-24T16:43:07.296Z,0
2022-12-24T16:43:47.811Z,0
2022-12-24T16:44:28.267Z,0
2022-12-24T16:45:08.997Z,0
2022-12-24T16:45:49.563Z,0
2022-12-24T16:46:30.159Z,0
2022-12-24T16:47:10.562Z,0
2022-12-24T16:47:51.083Z,0
2022-12-24T16:48:31.597Z,0
2022-12-24T16:53:56.675Z,0
2022-12-24T16:54:37.199Z,0
2022-12-24T16:55:17.666Z,0
2022-12-24T16:55:58.175Z,0
2022-12-24T16:56:38.670Z,0
2022-12-24T16:57:19.128Z,0
2022-12-24T16:57:59.616Z,0
2022-12-24T16:58:40.139Z,0
2022-12-24T16:59:20.664Z,0
2022-12-24T17:00:01.132Z,0
2022-12-24T17:07:26.645Z,0
2022-12-24T17:08:07.181Z,0
2022-12-24T17:08:47.639Z,0
2022-12-24T17:09:28.135Z,0
2022-12-24T17:10:08.665Z,0
2022-12-24T17:10:49.115Z,0
2022-12-24T17:11:29.628Z,0
2022-12-24T17:12:10.158Z,0
2022-12-24T17:12:50.643Z,0
2022-12-24T17:13:31.195Z,0
2022-12-24T17:14:16.472Z,0
2022-12-24T17:20:56.839Z,0
2022-12-24T17:21:37.337Z,0
2022-12-24T17:22:17.796Z,0
2022-12-24T17:22:58.293Z,0
2022-12-24T17:23:38.763Z,0
2022-12-24T17:24:19.254Z,0
2022-12-24T17:24:59.772Z,0
2022-12-24T17:26:20.832Z,0
2022-12-24T17:27:01.732Z,0
2022-12-24T17:33:46.871Z,0
2022-12-24T17:34:27.360Z,0
2022-12-24T17:35:07.864Z,0
2022-12-24T17:36:28.846Z,0
2022-12-24T17:37:09.344Z,0
2022-12-24T17:37:49.787Z,0
2022-12-24T17:38:30.273Z,0
2022-12-24T17:39:10.745Z,0
2022-12-24T17:39:51.247Z,0
2022-12-24T17:40:31.787Z,0
2022-12-24T17:47:16.817Z,0
2022-12-24T17:47:57.277Z,0
2022-12-24T17:48:38.911Z,0
2022-12-24T17:51:52.468Z,0
2022-12-24T17:52:32.487Z,0
2022-12-24T17:53:13.011Z,0
2022-12-24T17:53:53.473Z,0
2022-12-24T18:34:26.937Z,0
2022-12-24T18:35:07.429Z,0
2022-12-24T18:35:47.872Z,0
2022-12-24T18:36:28.372Z,0
2022-12-24T18:37:08.863Z,0
2022-12-24T18:37:49.347Z,0
2022-12-24T18:38:29.831Z,0
2022-12-24T18:39:10.350Z,0
2022-12-24T18:39:51.767Z,0
2022-12-24T18:43:29.907Z,0
2022-12-24T18:44:10.445Z,0
2022-12-24T18:44:51.021Z,0
2022-12-24T18:45:31.544Z,0
2022-12-24T18:46:12.108Z,0
2022-12-24T18:46:52.594Z,0
2022-12-24T18:47:33.057Z,0
2022-12-24T18:48:13.570Z,0
2022-12-24T18:48:54.149Z,0
2022-12-24T18:49:34.908Z,0
2022-12-24T18:54:19.864Z,0
2022-12-24T18:55:01.021Z,0
2022-12-24T18:55:41.823Z,0
2022-12-24T18:56:22.515Z,0
2022-12-24T18:57:03.030Z,0
2022-12-24T18:57:44.413Z,0
2022-12-24T18:58:24.116Z,0
2022-12-24T18:59:04.609Z,0
2022-12-24T19:03:10.064Z,0
2022-12-24T19:03:50.518Z,0
2022-12-24T19:04:31.275Z,0
2022-12-24T19:10:40.197Z,0
2022-12-24T19:11:20.618Z,0
2022-12-24T19:12:01.807Z,0
2022-12-24T19:12:43.022Z,0
2022-12-24T19:13:24.443Z,0
2022-12-24T19:14:04.732Z,0
2022-12-24T19:18:50.687Z,0
2022-12-24T19:19:31.443Z,0
2022-12-24T19:20:12.542Z,0
2022-12-24T19:20:53.168Z,0
2022-12-24T19:21:33.671Z,0
2022-12-24T19:22:14.142Z,0
2022-12-24T19:22:54.645Z,0
2022-12-24T19:28:25.658Z,0
2022-12-24T19:29:01.401Z,0
2022-12-24T19:29:41.986Z,0
2022-12-24T19:30:22.435Z,0
2022-12-24T19:31:02.935Z,0
2022-12-24T19:31:43.421Z,0
2022-12-24T19:32:23.886Z,0
2022-12-24T19:33:04.396Z,0
2022-12-24T19:38:31.687Z,0
2022-12-24T19:39:12.053Z,0
2022-12-24T19:39:52.549Z,0
2022-12-24T19:40:33.104Z,0
2022-12-24T19:41:13.724Z,0
2022-12-24T19:41:54.742Z,0
2022-12-24T19:44:41.455Z,0
2022-12-24T19:45:22.330Z,0
2022-12-24T19:46:02.242Z,0
2022-12-24T19:46:43.251Z,0
2022-12-24T19:47:23.564Z,0
2022-12-24T19:48:04.130Z,0
2022-12-24T19:48:44.597Z,0
2022-12-24T19:49:25.290Z,0
2022-12-24T19:54:49.832Z,0
2022-12-24T19:55:30.268Z,0
2022-12-24T19:56:10.724Z,0
2022-12-24T19:56:51.331Z,0
2022-12-24T19:57:32.447Z,0
2022-12-24T19:58:12.723Z,0
2022-12-24T19:58:53.438Z,0
2022-12-24T19:59:34.368Z,0
2022-12-24T20:00:14.846Z,0
2022-12-24T20:06:19.901Z,0
2022-12-24T20:07:01.056Z,0
2022-12-24T20:07:41.012Z,0
2022-12-24T20:08:21.422Z,0
2022-12-24T20:09:02.012Z,0
2022-12-24T20:09:42.460Z,0
2022-12-24T20:10:22.970Z,0
2022-12-24T20:11:03.507Z,0
2022-12-24T20:11:44.008Z,0
2022-12-24T20:12:24.504Z,0
2022-12-24T20:13:06.199Z,0
2022-12-24T20:19:49.970Z,0
2022-12-24T20:20:30.503Z,0
2022-12-24T20:21:11.024Z,0
2022-12-24T20:21:51.568Z,0
2022-12-24T20:22:32.043Z,0
2022-12-24T20:23:12.571Z,0
2022-12-24T20:23:53.046Z,0
2022-12-24T20:24:33.526Z,0
2022-12-24T20:25:14.058Z,0
2022-12-24T20:25:54.579Z,0
2022-12-24T20:26:35.047Z,0
2022-12-24T20:33:20.069Z,0
2022-12-24T20:34:00.572Z,0
2022-12-24T20:34:41.047Z,0
2022-12-24T20:35:21.525Z,0
2022-12-24T20:36:02.058Z,0
2022-12-24T20:36:42.604Z,0
2022-12-24T20:37:23.103Z,0
2022-12-24T20:38:03.612Z,0
2022-12-24T20:41:17.784Z,0